createdAt,value
2022-10-31T00:00:12.264Z,8.50
2022-10-31T00:01:12.208Z,8.70
2022-10-31T00:02:12.288Z,8.20
2022-10-31T00:03:12.173Z,8.50
2022-10-31T00:04:12.178Z,8.40
2022-10-31T00:05:12.166Z,8.10
2022-10-31T00:06:12.139Z,8.30
2022-10-31T00:07:12.128Z,8.60
2022-10-31T00:08:12.123Z,9.00
2022-10-31T00:09:12.125Z,8.30
2022-10-31T00:10:12.098Z,8.30
2022-10-31T00:11:12.090Z,8.70
2022-10-31T00:12:12.088Z,9.60
2022-10-31T00:13:12.072Z,9.20
2022-10-31T00:14:12.052Z,9.30
2022-10-31T00:15:12.046Z,9.30
2022-10-31T00:16:12.056Z,9.70
2022-10-31T00:17:12.029Z,9.40
2022-10-31T00:18:12.050Z,9.40
2022-10-31T00:19:12.015Z,9.30
2022-10-31T00:20:11.987Z,9.90
2022-10-31T00:21:11.990Z,9.80
2022-10-31T00:22:12.005Z,9.90
2022-10-31T00:23:11.950Z,10.20
2022-10-31T00:24:11.949Z,9.90
2022-10-31T00:25:11.956Z,9.90
2022-10-31T00:26:11.937Z,9.30
2022-10-31T00:27:11.933Z,9.90
2022-10-31T00:28:12.001Z,10.40
2022-10-31T00:29:11.895Z,11.10
2022-10-31T00:30:11.890Z,11.70
2022-10-31T00:31:11.865Z,10.60
2022-10-31T00:32:11.883Z,10.70
2022-10-31T00:33:11.856Z,11.10
2022-10-31T00:34:11.837Z,10.60
2022-10-31T00:35:11.821Z,11.60
2022-10-31T00:36:11.822Z,10.90
2022-10-31T00:37:11.824Z,11.60
2022-10-31T00:38:11.810Z,11.80
2022-10-31T00:39:11.777Z,12.00
2022-10-31T00:40:11.783Z,11.80
2022-10-31T00:41:11.788Z,12.00
2022-10-31T00:42:11.750Z,11.60
2022-10-31T00:44:11.737Z,11.40
2022-10-31T00:45:19.243Z,12.60
2022-10-31T00:46:11.718Z,13.10
2022-10-31T00:47:11.699Z,11.60
2022-10-31T00:48:11.703Z,11.60
2022-10-31T00:49:11.665Z,12.10
2022-10-31T00:50:11.672Z,12.00
2022-10-31T00:51:11.657Z,12.00
2022-10-31T00:52:12.616Z,11.80
2022-10-31T00:53:11.641Z,11.60
2022-10-31T00:54:11.631Z,11.60
2022-10-31T00:55:11.615Z,11.00
2022-10-31T00:56:11.594Z,11.20
2022-10-31T00:57:11.592Z,10.80
2022-10-31T00:58:11.682Z,10.80
2022-10-31T00:59:11.557Z,11.00
2022-10-31T01:00:11.592Z,11.40
2022-10-31T01:01:11.622Z,10.80
2022-10-31T01:02:11.777Z,11.20
2022-10-31T01:03:11.520Z,11.40
2022-10-31T01:04:11.532Z,11.20
2022-10-31T01:05:11.512Z,11.00
2022-10-31T01:06:11.520Z,10.50
2022-10-31T01:07:11.470Z,11.50
2022-10-31T01:08:11.511Z,11.40
2022-10-31T01:09:11.491Z,10.70
2022-10-31T01:10:11.452Z,10.50
2022-10-31T01:11:11.430Z,10.10
2022-10-31T01:12:11.437Z,9.80
2022-10-31T01:13:11.469Z,10.00
2022-10-31T01:14:11.405Z,10.70
2022-10-31T01:15:11.396Z,10.10
2022-10-31T01:16:11.382Z,9.90
2022-10-31T01:17:11.374Z,10.50
2022-10-31T01:18:11.382Z,11.20
2022-10-31T01:19:11.354Z,10.40
2022-10-31T01:20:11.351Z,10.90
2022-10-31T01:21:11.327Z,11.10
2022-10-31T01:22:11.321Z,10.30
2022-10-31T01:23:11.374Z,11.60
2022-10-31T01:24:11.308Z,11.90
2022-10-31T01:25:11.299Z,10.60
2022-10-31T01:26:11.279Z,10.20
2022-10-31T01:27:11.279Z,10.40
2022-10-31T01:28:11.353Z,10.70
2022-10-31T01:29:11.238Z,10.70
2022-10-31T01:30:11.244Z,10.30
2022-10-31T01:31:11.228Z,10.50
2022-10-31T01:32:11.212Z,11.10
2022-10-31T01:33:11.194Z,10.10
2022-10-31T01:34:11.200Z,9.70
2022-10-31T01:35:11.190Z,10.60
2022-10-31T01:36:11.195Z,10.60
2022-10-31T01:37:11.154Z,10.10
2022-10-31T01:38:11.152Z,9.70
2022-10-31T01:39:11.127Z,10.00
2022-10-31T01:40:11.127Z,10.00
2022-10-31T01:41:11.132Z,9.60
2022-10-31T01:42:11.088Z,10.40
2022-10-31T01:43:11.130Z,9.60
2022-10-31T01:44:11.069Z,9.10
2022-10-31T01:45:11.078Z,9.50
2022-10-31T01:46:11.047Z,9.40
2022-10-31T01:47:11.050Z,10.40
2022-10-31T01:48:11.025Z,9.80
2022-10-31T01:49:11.018Z,9.60
2022-10-31T01:50:11.017Z,9.60
2022-10-31T01:51:11.000Z,9.30
2022-10-31T01:52:10.981Z,9.30
2022-10-31T01:53:10.977Z,9.10
2022-10-31T01:54:10.960Z,9.40
2022-10-31T01:55:10.966Z,8.90
2022-10-31T01:56:10.963Z,9.40
2022-10-31T01:57:10.953Z,9.40
2022-10-31T01:58:11.016Z,8.80
2022-10-31T01:59:10.922Z,8.20
2022-10-31T02:00:10.915Z,8.80
2022-10-31T02:01:11.043Z,9.20
2022-10-31T02:02:11.057Z,9.30
2022-10-31T02:03:10.875Z,8.90
2022-10-31T02:04:10.851Z,9.00
2022-10-31T02:05:10.870Z,9.60
2022-10-31T02:06:10.844Z,8.80
2022-10-31T02:07:10.824Z,8.90
2022-10-31T02:08:10.805Z,8.90
2022-10-31T02:09:10.812Z,8.90
2022-10-31T02:10:10.818Z,9.00
2022-10-31T02:11:10.798Z,9.60
2022-10-31T02:12:10.766Z,10.10
2022-10-31T02:13:10.929Z,9.30
2022-10-31T02:14:10.745Z,9.50
2022-10-31T02:15:10.756Z,9.10
2022-10-31T02:16:10.744Z,9.10
2022-10-31T02:17:10.716Z,9.40
2022-10-31T02:18:10.699Z,9.00
2022-10-31T02:19:10.694Z,9.70
2022-10-31T02:20:10.675Z,9.50
2022-10-31T02:21:10.673Z,9.60
2022-10-31T02:22:10.685Z,9.80
2022-10-31T02:23:10.649Z,9.70
2022-10-31T02:24:10.653Z,9.90
2022-10-31T02:25:10.647Z,9.70
2022-10-31T02:26:10.626Z,9.80
2022-10-31T02:27:10.604Z,9.50
2022-10-31T02:28:10.673Z,8.60
2022-10-31T02:29:10.607Z,9.50
2022-10-31T02:30:10.571Z,9.40
2022-10-31T02:31:10.588Z,9.60
2022-10-31T02:32:10.545Z,9.20
2022-10-31T02:33:10.551Z,9.60
2022-10-31T02:34:10.527Z,9.60
2022-10-31T02:35:10.531Z,9.50
2022-10-31T02:36:10.527Z,9.20
2022-10-31T02:37:10.518Z,8.80
2022-10-31T02:38:10.484Z,8.90
2022-10-31T02:39:10.499Z,9.30
2022-10-31T02:40:10.459Z,9.70
2022-10-31T02:41:10.452Z,9.50
2022-10-31T02:42:10.452Z,8.90
2022-10-31T02:43:10.478Z,8.70
2022-10-31T02:44:10.447Z,8.60
2022-10-31T02:45:10.428Z,8.40
2022-10-31T02:46:17.892Z,9.00
2022-10-31T02:47:10.387Z,8.90
2022-10-31T02:48:10.386Z,8.90
2022-10-31T02:49:10.365Z,8.20
2022-10-31T02:50:10.347Z,8.80
2022-10-31T02:51:10.347Z,8.80
2022-10-31T02:52:10.328Z,9.00
2022-10-31T02:53:10.321Z,9.10
2022-10-31T02:54:10.319Z,8.80
2022-10-31T02:55:10.313Z,9.40
2022-10-31T02:56:10.285Z,8.80
2022-10-31T02:57:10.276Z,9.10
2022-10-31T02:58:10.319Z,9.00
2022-10-31T02:59:10.272Z,9.10
2022-10-31T03:00:10.273Z,8.60
2022-10-31T03:01:10.464Z,8.80
2022-10-31T03:02:10.338Z,8.60
2022-10-31T03:03:10.217Z,9.30
2022-10-31T03:04:10.211Z,9.10
2022-10-31T03:05:10.191Z,8.80
2022-10-31T03:06:10.189Z,8.60
2022-10-31T03:07:10.195Z,8.40
2022-10-31T03:08:10.185Z,8.20
2022-10-31T03:09:10.151Z,9.00
2022-10-31T03:10:10.149Z,8.80
2022-10-31T03:11:10.126Z,8.30
2022-10-31T03:12:10.125Z,8.80
2022-10-31T03:13:10.142Z,8.40
2022-10-31T03:14:10.094Z,8.70
2022-10-31T03:15:10.084Z,8.40
2022-10-31T03:16:10.071Z,8.80
2022-10-31T03:17:10.091Z,8.50
2022-10-31T03:18:10.072Z,8.60
2022-10-31T03:19:10.079Z,9.10
2022-10-31T03:20:10.034Z,8.70
2022-10-31T03:21:10.028Z,9.10
2022-10-31T03:22:10.006Z,9.20
2022-10-31T03:23:09.996Z,10.10
2022-10-31T03:24:09.993Z,10.00
2022-10-31T03:25:09.991Z,8.90
2022-10-31T03:26:09.958Z,8.60
2022-10-31T03:27:09.957Z,8.80
2022-10-31T03:28:10.028Z,8.40
2022-10-31T03:29:09.954Z,8.90
2022-10-31T03:30:09.925Z,8.60
2022-10-31T03:31:09.909Z,9.00
2022-10-31T03:32:09.896Z,9.30
2022-10-31T03:33:09.909Z,8.60
2022-10-31T03:34:09.879Z,8.80
2022-10-31T03:35:09.880Z,9.60
2022-10-31T03:36:09.848Z,9.90
2022-10-31T03:37:09.842Z,8.60
2022-10-31T03:38:09.872Z,9.20
2022-10-31T03:39:09.874Z,9.40
2022-10-31T03:40:09.837Z,9.00
2022-10-31T03:41:09.800Z,9.30
2022-10-31T03:42:09.796Z,9.40
2022-10-31T03:43:09.922Z,9.10
2022-10-31T03:44:09.762Z,9.50
2022-10-31T03:45:09.775Z,9.00
2022-10-31T03:46:09.744Z,8.90
2022-10-31T03:47:09.734Z,9.40
2022-10-31T03:48:09.749Z,9.40
2022-10-31T03:49:09.739Z,8.80
2022-10-31T03:50:09.733Z,9.00
2022-10-31T03:51:09.728Z,9.00
2022-10-31T03:52:09.684Z,8.80
2022-10-31T03:53:09.666Z,9.50
2022-10-31T03:54:09.653Z,9.10
2022-10-31T03:55:09.648Z,9.40
2022-10-31T03:56:09.636Z,9.40
2022-10-31T03:57:09.637Z,9.10
2022-10-31T03:58:09.736Z,9.40
2022-10-31T03:59:09.605Z,9.90
2022-10-31T04:00:09.612Z,8.70
2022-10-31T04:01:09.768Z,9.40
2022-10-31T04:02:09.742Z,9.60
2022-10-31T04:03:09.558Z,9.40
2022-10-31T04:04:09.545Z,9.50
2022-10-31T04:05:09.570Z,9.40
2022-10-31T04:06:09.535Z,9.40
2022-10-31T04:07:09.529Z,9.50
2022-10-31T04:08:09.497Z,10.10
2022-10-31T04:09:09.493Z,8.90
2022-10-31T04:10:09.525Z,9.90
2022-10-31T04:11:09.485Z,9.60
2022-10-31T04:12:09.476Z,9.40
2022-10-31T04:13:09.562Z,9.30
2022-10-31T04:14:09.457Z,10.40
2022-10-31T04:15:09.438Z,9.70
2022-10-31T04:16:12.643Z,9.80
2022-10-31T04:17:10.405Z,9.80
2022-10-31T04:18:09.392Z,10.50
2022-10-31T04:19:09.414Z,9.80
2022-10-31T04:20:09.379Z,9.00
2022-10-31T04:21:09.395Z,10.00
2022-10-31T04:22:09.364Z,9.80
2022-10-31T04:23:13.802Z,9.90
2022-10-31T04:24:10.323Z,9.40
2022-10-31T04:25:09.318Z,9.40
2022-10-31T04:26:09.328Z,10.10
2022-10-31T04:27:09.296Z,9.80
2022-10-31T04:28:09.385Z,10.20
2022-10-31T04:29:09.274Z,9.10
2022-10-31T04:30:09.282Z,9.50
2022-10-31T04:31:09.252Z,9.70
2022-10-31T04:32:09.255Z,10.10
2022-10-31T04:33:09.231Z,9.40
2022-10-31T04:34:09.215Z,9.70
2022-10-31T04:35:09.221Z,9.80
2022-10-31T04:36:09.213Z,10.50
2022-10-31T04:37:09.212Z,11.00
2022-10-31T04:38:09.171Z,10.40
2022-10-31T04:39:09.173Z,10.00
2022-10-31T04:40:09.172Z,10.50
2022-10-31T04:41:09.167Z,9.90
2022-10-31T04:42:09.134Z,10.60
2022-10-31T04:43:09.243Z,9.90
2022-10-31T04:44:09.109Z,11.00
2022-10-31T04:45:09.122Z,10.90
2022-10-31T04:46:09.087Z,10.60
2022-10-31T04:47:16.605Z,10.20
2022-10-31T04:48:09.058Z,10.10
2022-10-31T04:49:09.058Z,10.50
2022-10-31T04:50:09.043Z,10.80
2022-10-31T04:51:09.057Z,11.00
2022-10-31T04:52:09.036Z,10.90
2022-10-31T04:53:09.029Z,11.10
2022-10-31T04:54:08.996Z,10.40
2022-10-31T04:55:08.988Z,10.50
2022-10-31T04:56:09.000Z,10.50
2022-10-31T04:57:08.965Z,10.40
2022-10-31T04:58:09.054Z,10.20
2022-10-31T04:59:08.947Z,10.40
2022-10-31T05:00:08.951Z,10.60
2022-10-31T05:01:09.113Z,10.60
2022-10-31T05:02:09.146Z,10.00
2022-10-31T05:03:08.913Z,10.80
2022-10-31T05:04:08.898Z,10.90
2022-10-31T05:05:08.875Z,11.60
2022-10-31T05:06:08.874Z,11.00
2022-10-31T05:07:08.857Z,10.70
2022-10-31T05:08:08.838Z,10.80
2022-10-31T05:09:08.853Z,10.70
2022-10-31T05:10:08.819Z,11.40
2022-10-31T05:11:08.898Z,11.20
2022-10-31T05:12:08.801Z,10.60
2022-10-31T05:13:08.862Z,11.30
2022-10-31T05:14:08.786Z,12.10
2022-10-31T05:15:08.780Z,11.70
2022-10-31T05:16:08.748Z,11.80
2022-10-31T05:17:08.744Z,11.20
2022-10-31T05:18:08.760Z,12.10
2022-10-31T05:19:08.736Z,11.00
2022-10-31T05:20:08.708Z,11.80
2022-10-31T05:21:08.717Z,10.90
2022-10-31T05:22:08.709Z,11.10
2022-10-31T05:23:08.701Z,11.40
2022-10-31T05:24:08.677Z,11.70
2022-10-31T05:25:08.672Z,10.90
2022-10-31T05:26:08.639Z,12.40
2022-10-31T05:27:08.630Z,11.50
2022-10-31T05:28:08.632Z,11.70
2022-10-31T05:29:08.613Z,11.60
2022-10-31T05:30:08.600Z,11.20
2022-10-31T05:31:08.597Z,11.80
2022-10-31T05:32:08.587Z,11.60
2022-10-31T05:33:08.562Z,11.60
2022-10-31T05:34:08.576Z,12.10
2022-10-31T05:35:08.537Z,11.40
2022-10-31T05:36:08.557Z,11.40
2022-10-31T05:37:08.518Z,11.00
2022-10-31T05:38:08.517Z,11.20
2022-10-31T05:39:08.510Z,11.40
2022-10-31T05:40:08.694Z,11.60
2022-10-31T05:41:08.500Z,11.00
2022-10-31T05:42:08.553Z,11.30
2022-10-31T05:43:08.453Z,10.30
2022-10-31T05:44:08.467Z,11.70
2022-10-31T05:45:08.428Z,10.90
2022-10-31T05:46:08.428Z,11.70
2022-10-31T05:47:08.422Z,10.90
2022-10-31T05:48:08.405Z,12.00
2022-10-31T05:49:08.391Z,11.70
2022-10-31T05:50:08.398Z,11.00
2022-10-31T05:51:08.369Z,11.40
2022-10-31T05:52:08.354Z,11.90
2022-10-31T05:53:08.354Z,11.10
2022-10-31T05:54:10.837Z,11.80
2022-10-31T05:55:09.334Z,11.30
2022-10-31T05:56:08.313Z,11.50
2022-10-31T05:57:08.321Z,11.60
2022-10-31T05:58:08.294Z,11.60
2022-10-31T05:59:08.273Z,11.00
2022-10-31T06:00:08.268Z,11.40
2022-10-31T06:01:08.320Z,11.70
2022-10-31T06:02:08.256Z,11.90
2022-10-31T06:04:08.233Z,11.70
2022-10-31T06:05:08.263Z,11.40
2022-10-31T06:06:08.217Z,10.80
2022-10-31T06:07:08.197Z,11.10
2022-10-31T06:08:08.207Z,12.60
2022-10-31T06:09:08.176Z,12.00
2022-10-31T06:10:08.201Z,12.10
2022-10-31T06:11:08.171Z,11.80
2022-10-31T06:12:08.166Z,12.00
2022-10-31T06:13:08.156Z,11.80
2022-10-31T06:14:08.120Z,12.40
2022-10-31T06:15:08.100Z,11.80
2022-10-31T06:16:08.107Z,12.80
2022-10-31T06:17:08.072Z,11.50
2022-10-31T06:18:08.090Z,12.20
2022-10-31T06:19:08.073Z,11.50
2022-10-31T06:20:08.045Z,12.00
2022-10-31T06:21:08.049Z,11.80
2022-10-31T06:22:08.025Z,11.50
2022-10-31T06:23:08.012Z,12.40
2022-10-31T06:24:08.011Z,12.30
2022-10-31T06:25:08.676Z,12.00
2022-10-31T06:26:07.997Z,11.60
2022-10-31T06:27:07.975Z,11.40
2022-10-31T06:28:07.956Z,11.70
2022-10-31T06:29:07.963Z,10.90
2022-10-31T06:30:07.935Z,10.80
2022-10-31T06:31:07.927Z,11.50
2022-10-31T06:32:07.933Z,11.00
2022-10-31T06:33:07.927Z,10.90
2022-10-31T06:34:07.890Z,11.00
2022-10-31T06:35:07.879Z,10.30
2022-10-31T06:36:07.878Z,10.70
2022-10-31T06:37:07.890Z,10.90
2022-10-31T06:38:07.867Z,11.10
2022-10-31T06:39:07.854Z,10.60
2022-10-31T06:40:07.827Z,11.30
2022-10-31T06:41:07.857Z,10.70
2022-10-31T06:42:07.868Z,10.80
2022-10-31T06:43:07.809Z,10.30
2022-10-31T06:44:08.991Z,10.10
2022-10-31T06:45:07.804Z,10.50
2022-10-31T06:46:07.808Z,10.40
2022-10-31T06:47:07.744Z,10.40
2022-10-31T06:48:17.970Z,10.90
2022-10-31T06:49:07.719Z,11.30
2022-10-31T06:50:07.736Z,10.80
2022-10-31T06:51:07.699Z,10.80
2022-10-31T06:52:07.705Z,11.10
2022-10-31T06:53:07.769Z,11.30
2022-10-31T06:54:07.689Z,10.90
2022-10-31T06:55:07.684Z,10.90
2022-10-31T06:56:07.652Z,10.80
2022-10-31T06:57:07.642Z,10.90
2022-10-31T06:58:08.186Z,10.90
2022-10-31T06:59:07.635Z,11.00
2022-10-31T07:00:07.645Z,10.80
2022-10-31T07:01:07.920Z,10.70
2022-10-31T07:02:07.747Z,10.90
2022-10-31T07:03:07.608Z,10.80
2022-10-31T07:04:07.561Z,10.30
2022-10-31T07:05:07.563Z,10.70
2022-10-31T07:06:07.553Z,11.10
2022-10-31T07:07:07.523Z,10.60
2022-10-31T07:08:07.519Z,10.70
2022-10-31T07:09:07.520Z,10.80
2022-10-31T07:10:07.527Z,10.60
2022-10-31T07:11:07.751Z,10.90
2022-10-31T07:12:07.490Z,11.60
2022-10-31T07:13:07.474Z,11.50
2022-10-31T07:14:07.455Z,11.10
2022-10-31T07:15:07.436Z,10.80
2022-10-31T07:16:07.439Z,11.40
2022-10-31T07:17:07.466Z,10.90
2022-10-31T07:18:07.408Z,11.50
2022-10-31T07:19:07.409Z,11.40
2022-10-31T07:20:08.222Z,11.60
2022-10-31T07:21:07.373Z,11.90
2022-10-31T07:22:07.370Z,11.20
2022-10-31T07:23:07.361Z,12.00
2022-10-31T07:24:07.393Z,11.60
2022-10-31T07:25:07.331Z,11.30
2022-10-31T07:26:07.362Z,11.40
2022-10-31T07:27:07.307Z,12.20
2022-10-31T07:28:07.316Z,11.60
2022-10-31T07:29:07.284Z,11.60
2022-10-31T07:30:07.278Z,11.90
2022-10-31T07:31:07.292Z,11.80
2022-10-31T07:32:07.279Z,11.10
2022-10-31T07:33:07.267Z,11.10
2022-10-31T07:34:07.256Z,11.50
2022-10-31T07:35:07.222Z,11.40
2022-10-31T07:36:07.218Z,11.70
2022-10-31T07:37:07.230Z,12.50
2022-10-31T07:38:07.193Z,11.40
2022-10-31T07:39:07.187Z,11.90
2022-10-31T07:40:07.183Z,11.80
2022-10-31T07:41:07.160Z,11.60
2022-10-31T07:42:07.167Z,10.80
2022-10-31T07:43:10.084Z,11.40
2022-10-31T07:44:08.132Z,11.00
2022-10-31T07:45:07.118Z,11.70
2022-10-31T07:46:07.134Z,11.10
2022-10-31T07:47:07.095Z,11.70
2022-10-31T07:48:07.103Z,12.10
2022-10-31T07:49:07.132Z,11.20
2022-10-31T07:50:07.076Z,11.40
2022-10-31T07:51:07.048Z,11.70
2022-10-31T07:52:07.098Z,11.80
2022-10-31T07:53:07.105Z,11.20
2022-10-31T07:54:07.074Z,11.70
2022-10-31T07:55:07.012Z,11.40
2022-10-31T07:56:40.191Z,11.70
2022-10-31T07:57:36.061Z,10.60
2022-10-31T07:58:36.164Z,11.10
2022-10-31T07:59:43.993Z,11.80
2022-10-31T08:00:29.712Z,11.10
2022-10-31T08:04:13.626Z,11.40
2022-10-31T08:04:46.646Z,11.80
2022-10-31T08:06:08.427Z,12.00
2022-10-31T08:06:59.772Z,11.80
2022-10-31T08:07:48.212Z,11.90
2022-10-31T08:09:14.274Z,12.30
2022-10-31T08:10:10.771Z,11.30
2022-10-31T08:10:48.150Z,11.80
2022-10-31T08:11:41.035Z,12.10
2022-10-31T08:12:47.772Z,11.90
2022-10-31T08:16:19.016Z,9.80
2022-10-31T08:18:44.478Z,11.90
2022-10-31T08:19:20.976Z,11.80
2022-10-31T08:20:18.450Z,12.50
2022-10-31T08:21:10.095Z,12.20
2022-10-31T08:22:43.666Z,11.80
2022-10-31T08:23:44.727Z,13.10
2022-10-31T08:26:19.376Z,11.70
2022-10-31T08:27:36.230Z,12.40
2022-10-31T08:28:44.119Z,12.30
2022-10-31T08:29:20.133Z,11.70
2022-10-31T08:30:44.241Z,12.90
2022-10-31T08:35:02.483Z,12.00
2022-10-31T08:36:10.743Z,12.90
2022-10-31T08:36:52.311Z,12.90
2022-10-31T08:37:52.275Z,13.30
2022-10-31T08:38:52.284Z,13.10
2022-10-31T08:39:52.259Z,13.30
2022-10-31T08:40:52.266Z,12.50
2022-10-31T08:41:52.243Z,12.60
2022-10-31T08:42:52.234Z,12.30
2022-10-31T08:43:52.240Z,12.70
2022-10-31T08:44:52.214Z,12.90
2022-10-31T08:45:52.200Z,12.60
2022-10-31T08:46:52.227Z,13.70
2022-10-31T08:47:52.289Z,12.60
2022-10-31T08:48:52.154Z,12.80
2022-10-31T08:49:52.340Z,13.50
2022-10-31T08:50:52.153Z,13.00
2022-10-31T08:51:52.145Z,12.60
2022-10-31T08:53:04.624Z,12.80
2022-10-31T08:53:53.101Z,12.50
2022-10-31T08:54:52.149Z,12.90
2022-10-31T08:55:53.456Z,13.70
2022-10-31T08:56:52.242Z,12.50
2022-10-31T08:57:52.077Z,13.30
2022-10-31T08:58:52.057Z,12.60
2022-10-31T08:59:52.056Z,13.20
2022-10-31T09:00:52.072Z,12.90
2022-10-31T22:45:12.060Z,8.60
2022-10-31T22:46:12.009Z,8.20
2022-10-31T22:47:12.001Z,8.90
2022-10-31T22:48:12.004Z,8.90
2022-10-31T22:49:11.980Z,8.20
2022-10-31T22:50:11.975Z,8.00
2022-10-31T22:51:11.972Z,8.20
2022-10-31T22:52:11.964Z,8.40
2022-10-31T22:53:11.933Z,8.10
2022-10-31T22:54:11.935Z,8.90
2022-10-31T22:55:11.925Z,8.10
2022-10-31T22:56:11.901Z,8.40
2022-10-31T22:57:11.927Z,8.80
2022-10-31T22:58:11.889Z,7.80
2022-10-31T22:59:11.886Z,8.00
2022-10-31T23:00:11.854Z,8.40
2022-10-31T23:01:11.984Z,7.90
2022-10-31T23:02:12.827Z,8.20
2022-10-31T23:03:11.843Z,7.40
2022-10-31T23:05:11.805Z,8.10
2022-10-31T23:06:11.794Z,7.20
2022-10-31T23:07:14.403Z,7.70
2022-10-31T23:08:11.773Z,8.20
2022-10-31T23:09:11.769Z,7.90
2022-10-31T23:10:11.769Z,7.60
2022-10-31T23:11:11.774Z,7.30
2022-10-31T23:12:11.727Z,7.40
2022-10-31T23:13:11.730Z,7.00
2022-10-31T23:14:11.732Z,7.40
2022-10-31T23:15:11.695Z,7.70
2022-10-31T23:16:11.697Z,7.40
2022-10-31T23:17:11.691Z,7.40
2022-10-31T23:18:19.040Z,7.20
2022-10-31T23:19:12.668Z,7.10
2022-10-31T23:20:12.480Z,7.30
2022-10-31T23:21:11.626Z,7.10
2022-10-31T23:22:11.628Z,7.00
2022-10-31T23:23:11.618Z,6.80
2022-10-31T23:24:11.593Z,6.90
2022-10-31T23:25:11.581Z,7.20
2022-10-31T23:26:11.580Z,7.30
2022-10-31T23:27:11.594Z,6.80
2022-10-31T23:28:11.543Z,7.20
2022-10-31T23:29:11.541Z,7.00
2022-10-31T23:30:11.537Z,6.90
2022-10-31T23:31:11.535Z,7.40
2022-10-31T23:32:11.503Z,7.00
2022-10-31T23:33:11.512Z,6.60
2022-10-31T23:34:11.496Z,6.40
2022-10-31T23:35:11.471Z,7.10
2022-10-31T23:36:11.461Z,6.50
2022-10-31T23:37:11.478Z,6.80
2022-10-31T23:38:11.459Z,6.20
2022-10-31T23:39:11.427Z,6.90
2022-10-31T23:40:11.424Z,6.50
2022-10-31T23:41:11.424Z,6.70
2022-10-31T23:42:11.394Z,6.90
2022-10-31T23:43:11.384Z,6.40
2022-10-31T23:44:11.379Z,6.80
2022-10-31T23:45:11.375Z,6.90
2022-10-31T23:46:11.346Z,6.70
2022-10-31T23:47:11.349Z,6.80
2022-10-31T23:48:11.354Z,6.70
2022-10-31T23:49:11.340Z,6.90
2022-10-31T23:50:11.317Z,7.20
2022-10-31T23:51:11.305Z,6.90
2022-10-31T23:52:11.308Z,7.00
2022-10-31T23:53:11.299Z,7.30
2022-10-31T23:54:11.271Z,6.50
2022-10-31T23:55:11.265Z,6.70
2022-10-31T23:56:11.232Z,6.70
